LYNI/INI METAR and TAF weather

Enter ICAO airport designator
Station Type Date Time Source
LYNI METAR 2020/12/06 02:00 UTC NOAA

LYNI 060200Z VRB01KT 9999 FEW047 SCT060 06/04 Q1017 NOSIG


Station Type Date Time Source
LYNI Decoded METAR 2020/12/06 02:00 UTC NOAA

Nis, Serbia and Montenegro (LYNI) 43-20N 021-54E 202M
Dec 05, 2020 - 09:00 PM EST / 2020.12.06 0200 UTC
Wind: Variable at 1 MPH (1 KT):0
Visibility: greater than 7 mile(s):0
Sky conditions: partly cloudy
Temperature: 42 F (6 C)
Dew Point: 39 F (4 C)
Relative Humidity: 86%
Pressure (altimeter): 30.03 in. Hg (1017 hPa)
ob: LYNI 060200Z VRB01KT 9999 FEW047 SCT060 06/04 Q1017 NOSIG
cycle: 2

Station Type Date Time Source
LYNI TAF 2020/12/05 18:21 UTC NOAA

TAF LYNI 051700Z 0518/0618 09014KT 9999 SCT030 TX14/0613Z TN05/0605Z

Example: see airport list